Time;durP1;ratioP1;P1;durP2;ratioP2;P2;SDS_P1;SDS_P2;PMS_P1;PMS_P2;Temp;Humidity;BMP_temperature;BMP_pressure;BME280_temperature;BME280_humidity;BME280_pressure;Samples;Min_cycle;Max_cycle;Signal;HPM_P1;HPM_P2
2023/10/21 00:02:22;;;;;;;131.15;35.67;;;9.70;99.90;;;;;;4967056;28;20402;-72
2023/10/21 00:04:47;;;;;;;106.97;31.63;;;9.90;99.90;;;;;;4988226;28;20053;-71
2023/10/21 00:07:13;;;;;;;108.63;32.60;;;10.00;99.90;;;;;;4965165;28;20110;-72
2023/10/21 00:09:38;;;;;;;131.23;36.67;;;9.90;99.90;;;;;;4971249;28;20124;-72
2023/10/21 00:12:06;;;;;;;151.13;35.97;;;9.70;99.90;;;;;;4970271;28;20414;-71
2023/10/21 00:14:33;;;;;;;150.80;36.78;;;9.60;99.90;;;;;;4970934;28;20138;-73
2023/10/21 00:16:59;;;;;;;130.80;34.28;;;9.70;99.90;;;;;;4965344;28;20129;-71
2023/10/21 00:19:24;;;;;;;136.88;34.45;;;9.60;99.90;;;;;;4979034;28;20467;-72
2023/10/21 00:21:50;;;;;;;167.38;37.25;;;9.80;99.90;;;;;;4962749;28;20046;-71
2023/10/21 00:24:16;;;;;;;144.88;36.53;;;9.80;99.90;;;;;;4966815;28;20038;-72
2023/10/21 00:26:49;;;;;;;144.10;34.75;;;9.50;99.90;;;;;;4967651;28;20085;-73
2023/10/21 00:29:15;;;;;;;134.30;33.92;;;9.40;99.90;;;;;;4964189;28;20510;-72
2023/10/21 00:31:42;;;;;;;129.90;31.85;;;9.60;99.90;;;;;;4978843;28;20050;-72
2023/10/21 00:34:07;;;;;;;127.95;32.97;;;9.30;99.90;;;;;;4972192;28;20236;-72
2023/10/21 00:36:33;;;;;;;133.02;33.63;;;9.70;99.90;;;;;;4965906;28;20122;-73
2023/10/21 00:38:58;;;;;;;148.20;33.65;;;9.40;99.90;;;;;;4974435;28;20064;-71
2023/10/21 00:41:24;;;;;;;99.93;29.65;;;9.60;99.90;;;;;;4957594;28;20152;-72
2023/10/21 00:43:50;;;;;;;121.10;31.42;;;9.20;99.90;;;;;;4980805;28;20102;-73
2023/10/21 00:46:17;;;;;;;100.53;29.95;;;9.50;99.90;;;;;;4952256;28;20074;-72
2023/10/21 00:48:45;;;;;;;123.45;32.90;;;9.10;99.90;;;;;;4959192;28;20045;-72
2023/10/21 00:51:10;;;;;;;146.43;34.90;;;9.50;99.90;;;;;;4959331;28;20053;-71
2023/10/21 00:53:37;;;;;;;101.75;29.92;;;9.50;99.90;;;;;;4977576;28;20469;-73
2023/10/21 00:56:03;;;;;;;124.80;32.95;;;9.50;99.90;;;;;;4957222;28;20438;-72
2023/10/21 00:58:32;;;;;;;145.20;33.25;;;9.10;99.90;;;;;;4973502;28;20038;-72
2023/10/21 01:01:01;;;;;;;131.73;31.60;;;9.40;99.90;;;;;;4985402;28;20041;-73
2023/10/21 01:03:27;;;;;;;109.45;30.23;;;9.40;99.90;;;;;;4978478;28;20085;-73
2023/10/21 01:05:53;;;;;;;128.98;32.53;;;9.10;99.90;;;;;;4971158;28;20038;-73
2023/10/21 01:08:19;;;;;;;130.95;32.63;;;9.30;99.90;;;;;;4956337;28;20446;-72
2023/10/21 01:10:45;;;;;;;140.93;33.22;;;8.90;99.90;;;;;;4984539;28;20363;-72
2023/10/21 01:13:10;;;;;;;116.57;30.52;;;9.20;99.90;;;;;;4970115;28;20042;-71
2023/10/21 01:15:36;;;;;;;130.52;31.42;;;8.80;99.90;;;;;;4970419;28;20418;-74
2023/10/21 01:18:06;;;;;;;118.20;31.23;;;9.10;99.90;;;;;;4972885;28;20114;-72
2023/10/21 01:20:32;;;;;;;119.30;31.20;;;9.00;99.90;;;;;;4956026;28;20046;-73
2023/10/21 01:22:59;;;;;;;135.10;32.40;;;9.10;99.90;;;;;;4971715;28;20055;-72
2023/10/21 01:25:25;;;;;;;135.88;30.27;;;9.10;99.90;;;;;;4971557;28;20061;-73
2023/10/21 01:27:54;;;;;;;125.47;30.98;;;8.70;99.90;;;;;;4968495;28;20034;-72
2023/10/21 01:30:21;;;;;;;121.57;29.83;;;8.90;99.90;;;;;;4990320;28;20100;-73
2023/10/21 01:32:49;;;;;;;88.57;27.15;;;8.70;99.90;;;;;;4962408;28;20189;-73
2023/10/21 01:35:16;;;;;;;139.32;32.53;;;9.00;99.90;;;;;;4953340;28;20335;-73
2023/10/21 01:37:45;;;;;;;105.00;28.13;;;8.80;99.90;;;;;;4953386;28;20042;-75
2023/10/21 01:40:12;;;;;;;129.23;31.23;;;9.00;99.90;;;;;;4968653;28;20038;-73
2023/10/21 01:42:38;;;;;;;89.72;26.02;;;9.00;99.90;;;;;;4984292;28;20151;-70
2023/10/21 01:45:04;;;;;;;104.63;27.77;;;8.70;99.90;;;;;;4977127;28;20054;-73
2023/10/21 01:47:30;;;;;;;124.97;30.83;;;8.90;99.90;;;;;;4966105;28;20047;-72
2023/10/21 01:49:57;;;;;;;112.13;27.95;;;8.90;99.90;;;;;;4980664;28;20180;-73
2023/10/21 01:52:23;;;;;;;105.68;28.33;;;8.70;99.90;;;;;;4957973;28;20050;-74
2023/10/21 01:54:49;;;;;;;112.43;29.15;;;8.70;99.90;;;;;;4983117;28;20046;-74
2023/10/21 01:57:15;;;;;;;104.07;27.75;;;9.10;99.90;;;;;;4975134;28;20062;-72
2023/10/21 01:59:41;;;;;;;100.88;27.05;;;8.80;99.90;;;;;;4974297;28;20121;-73
2023/10/21 02:02:07;;;;;;;98.45;28.15;;;8.80;99.90;;;;;;4969689;28;20045;-73
2023/10/21 02:04:33;;;;;;;127.60;31.45;;;8.90;99.90;;;;;;4959236;28;20430;-71
2023/10/21 02:06:59;;;;;;;118.95;30.05;;;9.10;99.90;;;;;;4985676;28;20057;-72
2023/10/21 02:09:24;;;;;;;122.35;31.55;;;8.90;99.90;;;;;;4974763;28;20496;-73
2023/10/21 02:11:55;;;;;;;120.78;30.35;;;8.70;99.90;;;;;;4994422;28;20049;-74
2023/10/21 02:14:22;;;;;;;;;;;8.90;99.90;;;;;;4973677;28;20490;-73
2023/10/21 02:16:52;;;;;;;130.35;30.42;;;9.10;99.90;;;;;;4968179;28;19917;-73
2023/10/21 02:19:18;;;;;;;108.47;30.33;;;8.70;99.90;;;;;;4976061;28;20494;-73
2023/10/21 02:21:44;;;;;;;131.48;32.10;;;8.90;99.90;;;;;;4973698;28;20038;-72
2023/10/21 02:24:10;;;;;;;133.07;31.23;;;9.00;99.90;;;;;;4958143;28;20046;-73
2023/10/21 02:26:35;;;;;;;115.43;30.05;;;8.90;99.90;;;;;;4972170;28;20117;-73
2023/10/21 02:29:01;;;;;;;107.80;28.90;;;8.70;99.90;;;;;;4974158;28;20137;-73
2023/10/21 02:31:27;;;;;;;120.68;30.27;;;8.70;99.90;;;;;;4969438;28;20044;-74
2023/10/21 02:33:52;;;;;;;124.47;30.92;;;8.60;99.90;;;;;;4971942;28;20142;-74
2023/10/21 02:36:18;;;;;;;107.05;29.00;;;9.00;99.90;;;;;;4969116;28;20443;-73
2023/10/21 02:38:44;;;;;;;92.85;26.48;;;8.60;99.90;;;;;;4973259;28;20030;-74
2023/10/21 02:41:10;;;;;;;123.40;30.33;;;9.00;99.90;;;;;;4974214;28;20579;-73
2023/10/21 02:43:35;;;;;;;102.25;29.25;;;8.90;99.90;;;;;;4974183;28;20050;-74
2023/10/21 02:46:11;;;;;;;108.28;27.73;;;9.00;99.90;;;;;;4966911;28;20049;-73
2023/10/21 02:48:38;;;;;;;105.57;28.33;;;9.00;99.90;;;;;;4970692;28;20034;-72
2023/10/21 02:51:15;;;;;;;113.25;30.35;;;8.80;99.90;;;;;;4972156;28;20054;-74
2023/10/21 02:53:41;;;;;;;112.25;29.77;;;9.00;99.90;;;;;;4981171;28;20121;-73
2023/10/21 02:56:07;;;;;;;126.28;31.77;;;9.00;99.90;;;;;;4959072;28;20541;-74
2023/10/21 02:58:36;;;;;;;131.35;32.15;;;8.70;99.90;;;;;;4988946;28;20125;-72
2023/10/21 03:01:11;;;;;;;121.90;30.33;;;8.80;99.90;;;;;;4976598;28;20038;-73
2023/10/21 03:03:37;;;;;;;113.93;30.38;;;9.00;99.90;;;;;;4988960;28;20080;-74
2023/10/21 03:06:03;;;;;;;117.85;31.23;;;9.00;99.90;;;;;;4973130;28;20070;-73
2023/10/21 03:08:29;;;;;;;110.28;28.50;;;9.00;99.90;;;;;;4961706;28;20047;-73
2023/10/21 03:10:55;;;;;;;136.07;32.38;;;9.00;99.90;;;;;;4960728;28;20062;-73
2023/10/21 03:13:20;;;;;;;113.50;29.65;;;9.00;99.90;;;;;;4982086;28;20050;-74
2023/10/21 03:15:46;;;;;;;145.10;32.63;;;9.10;99.90;;;;;;4972535;28;20034;-73
2023/10/21 03:18:12;;;;;;;120.40;30.40;;;8.90;99.90;;;;;;4977968;28;20050;-74
2023/10/21 03:20:37;;;;;;;121.35;31.77;;;9.10;99.90;;;;;;4981612;28;20042;-74
2023/10/21 03:23:04;;;;;;;122.13;30.77;;;9.00;99.90;;;;;;4974666;28;20125;-73
2023/10/21 03:25:30;;;;;;;130.07;31.33;;;8.70;99.90;;;;;;4974927;28;20125;-72
2023/10/21 03:27:56;;;;;;;107.35;28.90;;;8.60;99.90;;;;;;4971043;28;20038;-73
2023/10/21 03:30:21;;;;;;;125.88;30.15;;;8.70;99.90;;;;;;4968908;28;20041;-74
2023/10/21 03:32:47;;;;;;;123.80;30.20;;;8.90;99.90;;;;;;4952591;28;20038;-73
2023/10/21 03:35:13;;;;;;;99.93;28.40;;;8.90;99.90;;;;;;4971565;28;20137;-72
2023/10/21 03:37:38;;;;;;;107.10;27.55;;;8.70;99.90;;;;;;4973765;28;20477;-73
2023/10/21 03:40:05;;;;;;;96.10;27.77;;;8.60;99.90;;;;;;4954526;28;20067;-73
2023/10/21 03:42:31;;;;;;;96.50;26.67;;;8.70;99.90;;;;;;4954501;28;20512;-73
2023/10/21 03:44:57;;;;;;;95.20;26.58;;;8.70;99.90;;;;;;4975717;28;20038;-73
2023/10/21 03:47:22;;;;;;;91.43;26.92;;;8.70;99.90;;;;;;4961615;28;20816;-73
2023/10/21 03:49:48;;;;;;;109.88;27.52;;;8.70;99.90;;;;;;4953536;28;20052;-72
2023/10/21 03:52:13;;;;;;;68.18;23.35;;;8.90;99.90;;;;;;4971005;28;20451;-73
2023/10/21 03:54:39;;;;;;;93.88;26.38;;;9.00;99.90;;;;;;4970855;28;20499;-74
2023/10/21 03:57:05;;;;;;;95.95;26.02;;;9.00;99.90;;;;;;4966313;28;20054;-73
2023/10/21 03:59:30;;;;;;;99.50;26.95;;;9.00;99.90;;;;;;4969118;28;20141;-73
2023/10/21 04:01:57;;;;;;;89.22;24.92;;;9.00;99.90;;;;;;4966392;28;20034;-75
2023/10/21 04:04:23;;;;;;;82.20;24.60;;;8.60;99.90;;;;;;4971317;28;20069;-73
2023/10/21 04:06:48;;;;;;;136.00;30.70;;;9.00;99.90;;;;;;4971916;28;20046;-73
2023/10/21 04:09:14;;;;;;;78.72;23.77;;;9.10;99.90;;;;;;4978667;28;20118;-73
2023/10/21 04:11:41;;;;;;;105.25;27.10;;;9.20;99.90;;;;;;4979744;28;20096;-72
2023/10/21 04:14:07;;;;;;;87.47;25.73;;;9.20;99.90;;;;;;4970284;28;20038;-74
2023/10/21 04:16:32;;;;;;;100.38;25.48;;;9.30;99.90;;;;;;4979093;28;20030;-73
2023/10/21 04:18:58;;;;;;;96.50;25.73;;;9.30;99.90;;;;;;4970119;28;20038;-74
2023/10/21 04:21:25;;;;;;;74.93;24.67;;;9.30;99.90;;;;;;4987213;28;20128;-74
2023/10/21 04:23:51;;;;;;;106.20;27.05;;;9.10;99.90;;;;;;4969893;28;20042;-73
2023/10/21 04:26:16;;;;;;;105.53;28.33;;;9.10;99.90;;;;;;4959911;28;20532;-73
2023/10/21 04:28:42;;;;;;;90.20;25.10;;;9.30;99.90;;;;;;4975569;28;20049;-73
2023/10/21 04:31:07;;;;;;;101.22;25.27;;;9.10;99.90;;;;;;4965999;28;20050;-75
2023/10/21 04:33:33;;;;;;;83.00;24.77;;;9.10;99.90;;;;;;4966713;28;20042;-73
2023/10/21 04:35:58;;;;;;;87.80;24.83;;;9.00;99.90;;;;;;4968013;28;20487;-75
2023/10/21 04:38:24;;;;;;;76.20;23.50;;;9.00;99.90;;;;;;4967966;28;20046;-74
2023/10/21 04:40:50;;;;;;;91.07;24.10;;;9.30;99.90;;;;;;4969132;28;20153;-74
2023/10/21 04:43:15;;;;;;;98.25;25.83;;;9.20;99.90;;;;;;4968737;28;20042;-73
2023/10/21 04:45:41;;;;;;;79.03;22.90;;;9.20;99.90;;;;;;4982834;28;20045;-74
2023/10/21 04:48:07;;;;;;;91.25;24.42;;;8.90;99.90;;;;;;4971625;28;20107;-74
2023/10/21 04:50:32;;;;;;;80.90;21.85;;;9.00;99.90;;;;;;4968580;28;20050;-75
2023/10/21 04:52:59;;;;;;;83.80;22.88;;;8.90;99.90;;;;;;4986304;28;20038;-74
2023/10/21 04:55:25;;;;;;;72.15;22.25;;;9.20;99.90;;;;;;4970142;28;20489;-74
2023/10/21 04:57:51;;;;;;;83.38;22.73;;;8.90;99.90;;;;;;4969141;28;20042;-72
2023/10/21 05:00:17;;;;;;;74.97;22.48;;;9.10;99.90;;;;;;4952047;28;20038;-72
2023/10/21 05:02:42;;;;;;;73.88;21.40;;;8.80;99.90;;;;;;4968429;28;20106;-73
2023/10/21 05:05:09;;;;;;;61.03;20.23;;;9.30;99.90;;;;;;4965424;28;20038;-73
2023/10/21 05:07:34;;;;;;;64.32;21.48;;;9.30;99.90;;;;;;4964570;28;20042;-73
2023/10/21 05:10:00;;;;;;;74.30;21.60;;;9.40;99.90;;;;;;4969072;28;20046;-73
2023/10/21 05:12:26;;;;;;;77.15;22.20;;;9.40;99.90;;;;;;4962163;28;20042;-74
2023/10/21 05:14:52;;;;;;;75.80;22.23;;;9.50;99.90;;;;;;4968119;28;20162;-74
2023/10/21 05:17:17;;;;;;;57.33;19.73;;;9.10;99.90;;;;;;4960897;28;20449;-74
2023/10/21 05:19:43;;;;;;;72.30;21.55;;;9.00;99.90;;;;;;4971502;28;20092;-74
2023/10/21 05:22:08;;;;;;;70.50;21.05;;;9.10;99.90;;;;;;4969246;28;20050;-72
2023/10/21 05:24:34;;;;;;;75.03;21.35;;;9.40;99.90;;;;;;4972573;28;20461;-75
2023/10/21 05:27:00;;;;;;;67.05;21.33;;;9.20;99.90;;;;;;4964584;28;20042;-74
2023/10/21 05:29:25;;;;;;;79.93;21.65;;;9.10;99.90;;;;;;4968766;28;20031;-72
2023/10/21 05:31:51;;;;;;;63.28;18.95;;;9.30;99.90;;;;;;4964000;28;20386;-73
2023/10/21 05:34:19;;;;;;;72.13;20.33;;;9.40;99.90;;;;;;4977934;28;20088;-75
2023/10/21 05:36:46;;;;;;;66.03;19.90;;;9.30;99.90;;;;;;4962459;28;20054;-71
2023/10/21 05:39:12;;;;;;;56.58;19.98;;;9.20;99.90;;;;;;4968607;28;20121;-72
2023/10/21 05:41:39;;;;;;;72.25;20.63;;;9.50;99.90;;;;;;4983600;28;20053;-74
2023/10/21 05:44:05;;;;;;;62.13;19.95;;;9.60;99.90;;;;;;4971351;28;20419;-73
2023/10/21 05:46:30;;;;;;;56.80;19.75;;;9.30;99.90;;;;;;4969637;28;20041;-71
2023/10/21 05:48:56;;;;;;;63.22;19.38;;;9.40;99.90;;;;;;4972219;28;20542;-71
2023/10/21 05:51:21;;;;;;;60.55;20.25;;;9.30;99.90;;;;;;4968090;28;20057;-72
2023/10/21 05:53:47;;;;;;;62.70;20.75;;;9.70;99.90;;;;;;4969410;28;20462;-75
2023/10/21 05:56:12;;;;;;;60.80;19.80;;;9.40;99.90;;;;;;4951293;28;20430;-75
2023/10/21 05:58:41;;;;;;;65.45;20.58;;;9.70;99.90;;;;;;4960805;28;20122;-75
2023/10/21 06:01:08;;;;;;;68.53;20.30;;;9.70;99.90;;;;;;4969525;28;20387;-73
2023/10/21 06:03:35;;;;;;;59.60;19.58;;;9.50;99.90;;;;;;4970719;28;20045;-72
2023/10/21 06:06:01;;;;;;;63.97;20.02;;;9.60;99.90;;;;;;4969107;28;20068;-82
2023/10/21 06:08:29;;;;;;;57.58;19.30;;;9.80;99.90;;;;;;4982748;28;20367;-73
2023/10/21 06:10:54;;;;;;;54.58;18.10;;;9.80;99.90;;;;;;4970161;28;20045;-73
2023/10/21 06:13:20;;;;;;;55.30;18.08;;;9.70;99.90;;;;;;4970632;28;20050;-76
2023/10/21 06:15:48;;;;;;;47.90;16.90;;;9.80;99.90;;;;;;4953082;28;20050;-76
2023/10/21 06:18:14;;;;;;;46.70;17.02;;;9.80;99.90;;;;;;4976332;28;20160;-72
2023/10/21 06:20:40;;;;;;;57.80;17.40;;;9.80;99.90;;;;;;4962996;28;20062;-74
2023/10/21 06:23:06;;;;;;;44.85;16.88;;;9.70;99.90;;;;;;4970762;28;20448;-75
2023/10/21 06:25:32;;;;;;;53.70;17.52;;;9.60;99.90;;;;;;4985100;28;20145;-74
2023/10/21 06:27:58;;;;;;;50.58;16.60;;;9.80;99.90;;;;;;4978905;28;20038;-75
2023/10/21 06:30:23;;;;;;;48.45;17.10;;;9.60;99.90;;;;;;4953380;28;20070;-73
2023/10/21 06:32:49;;;;;;;45.30;16.02;;;9.90;99.90;;;;;;4986014;28;20508;-73
2023/10/21 06:35:15;;;;;;;48.67;17.00;;;10.10;99.90;;;;;;4975623;28;20097;-72
2023/10/21 06:37:40;;;;;;;47.75;17.48;;;9.70;99.90;;;;;;4974072;28;20042;-71
2023/10/21 06:40:06;;;;;;;59.13;18.40;;;9.80;99.90;;;;;;4981727;28;20042;-77
2023/10/21 06:42:33;;;;;;;54.80;17.10;;;9.80;99.90;;;;;;4989891;28;20455;-78
2023/10/21 06:44:58;;;;;;;59.08;16.73;;;9.80;99.90;;;;;;4985816;28;20042;-75
2023/10/21 06:47:24;;;;;;;46.33;16.33;;;10.10;99.90;;;;;;4980347;28;20244;-79
2023/10/21 06:49:50;;;;;;;40.67;15.32;;;9.90;99.90;;;;;;4993138;28;20069;-80
2023/10/21 06:52:17;;;;;;;52.53;16.52;;;10.10;99.90;;;;;;4989907;28;20046;-73
2023/10/21 06:54:44;;;;;;;48.38;15.98;;;9.80;99.90;;;;;;4988853;28;20485;-75
2023/10/21 06:57:09;;;;;;;53.45;16.90;;;9.80;99.90;;;;;;4976793;28;20038;-73
2023/10/21 06:59:35;;;;;;;48.83;16.23;;;10.00;99.90;;;;;;4977141;28;20130;-75
2023/10/21 07:02:01;;;;;;;43.88;16.10;;;10.10;99.90;;;;;;4980987;28;20074;-78
2023/10/21 07:04:26;;;;;;;38.55;15.23;;;10.10;99.90;;;;;;4991219;28;20042;-77
2023/10/21 07:06:52;;;;;;;49.70;16.33;;;9.90;99.90;;;;;;4958774;28;20403;-76
2023/10/21 07:09:17;;;;;;;49.28;17.02;;;10.10;99.90;;;;;;4956560;28;20038;-73
2023/10/21 07:11:43;;;;;;;50.67;17.02;;;10.00;99.90;;;;;;4956143;28;20042;-75
2023/10/21 07:14:09;;;;;;;47.83;16.33;;;10.30;99.90;;;;;;4979683;28;20035;-80
2023/10/21 07:16:34;;;;;;;48.38;16.35;;;10.30;99.90;;;;;;4958582;28;20506;-75
2023/10/21 07:19:00;;;;;;;58.97;17.33;;;10.30;99.90;;;;;;4991783;28;20064;-77
2023/10/21 07:21:26;;;;;;;48.95;16.65;;;10.40;99.90;;;;;;4988977;28;20384;-80
2023/10/21 07:23:51;;;;;;;45.35;14.52;;;10.50;99.90;;;;;;4974801;28;20046;-77
2023/10/21 07:26:17;;;;;;;51.20;16.25;;;10.60;99.90;;;;;;4972439;28;20133;-76
2023/10/21 07:28:42;;;;;;;39.00;15.32;;;10.40;99.90;;;;;;4973340;28;20134;-75
2023/10/21 07:31:08;;;;;;;51.42;14.70;;;10.50;99.90;;;;;;4968669;28;20042;-77
2023/10/21 07:33:34;;;;;;;54.45;17.45;;;10.60;99.90;;;;;;4974699;28;20414;-77
2023/10/21 07:36:00;;;;;;;47.70;16.15;;;10.30;99.90;;;;;;4976313;28;20050;-76
2023/10/21 07:38:25;;;;;;;47.05;15.27;;;10.50;99.90;;;;;;4992016;28;20049;-76
2023/10/21 07:40:51;;;;;;;63.25;16.20;;;10.40;99.90;;;;;;4972742;28;20100;-80
2023/10/21 07:43:17;;;;;;;48.88;15.70;;;10.50;99.90;;;;;;4974798;28;20098;-81
2023/10/21 07:45:43;;;;;;;51.65;16.88;;;10.60;99.90;;;;;;4972472;28;20054;-81
2023/10/21 07:48:10;;;;;;;52.05;16.13;;;10.50;99.90;;;;;;4974038;28;20130;-77
2023/10/21 07:50:36;;;;;;;58.80;17.40;;;10.80;99.90;;;;;;4975603;28;20065;-81
2023/10/21 07:53:01;;;;;;;49.40;15.95;;;10.80;99.90;;;;;;4974375;28;20042;-79
2023/10/21 07:55:28;;;;;;;44.85;15.90;;;10.60;99.90;;;;;;4974958;28;20053;-74
2023/10/21 07:57:54;;;;;;;53.80;16.13;;;10.80;99.90;;;;;;4991063;28;20594;-78
2023/10/21 08:00:20;;;;;;;43.72;15.93;;;10.90;99.90;;;;;;4988667;28;20475;-75
2023/10/21 08:02:46;;;;;;;52.28;16.67;;;11.20;99.90;;;;;;4972531;28;20048;-76
2023/10/21 08:05:11;;;;;;;47.53;15.75;;;10.90;99.90;;;;;;4970325;28;20117;-76
2023/10/21 08:07:37;;;;;;;50.30;15.77;;;11.10;99.90;;;;;;4955756;28;20455;-78
2023/10/21 08:10:07;;;;;;;48.17;16.73;;;11.40;99.90;;;;;;4956584;28;20086;-76
2023/10/21 08:12:33;;;;;;;52.95;16.42;;;11.30;99.90;;;;;;4958361;28;20038;-77
2023/10/21 08:15:04;;;;;;;56.28;17.80;;;11.60;99.90;;;;;;4974819;28;20078;-81
2023/10/21 08:17:30;;;;;;;54.20;19.00;;;11.80;99.90;;;;;;4970771;28;20042;-73
2023/10/21 08:19:56;;;;;;;57.00;18.88;;;11.50;99.90;;;;;;4986295;28;20412;-82
2023/10/21 08:22:22;;;;;;;50.40;17.98;;;11.60;99.90;;;;;;4974998;28;20038;-77
2023/10/21 08:24:48;;;;;;;53.38;18.70;;;11.90;99.90;;;;;;4991134;28;20038;-77
2023/10/21 08:27:14;;;;;;;50.38;16.88;;;11.80;99.90;;;;;;4987652;28;20046;-73
2023/10/21 08:29:41;;;;;;;48.60;17.63;;;11.90;99.90;;;;;;4973383;28;20457;-73
2023/10/21 08:32:07;;;;;;;40.63;17.00;;;12.10;99.90;;;;;;4955028;28;20108;-74
2023/10/21 08:34:35;;;;;;;45.20;17.10;;;12.80;99.90;;;;;;4973543;28;20058;-72
2023/10/21 08:37:01;;;;;;;40.45;16.92;;;12.70;99.90;;;;;;4974687;28;20039;-79
2023/10/21 08:39:27;;;;;;;33.28;15.65;;;12.90;99.90;;;;;;4990486;28;20392;-71
2023/10/21 08:41:53;;;;;;;38.42;16.15;;;12.80;99.90;;;;;;4973745;28;20053;-75
2023/10/21 08:44:20;;;;;;;37.42;16.73;;;12.80;99.90;;;;;;4958362;28;20038;-74
2023/10/21 08:46:47;;;;;;;33.45;15.45;;;13.20;99.90;;;;;;4955055;28;20042;-71
2023/10/21 08:49:15;;;;;;;33.35;15.55;;;13.20;99.90;;;;;;4974155;28;20045;-78
2023/10/21 08:51:41;;;;;;;28.40;13.60;;;13.20;99.90;;;;;;4974018;28;20043;-70
2023/10/21 08:54:07;;;;;;;30.48;14.25;;;13.20;99.90;;;;;;4990995;28;20046;-74
2023/10/21 08:56:33;;;;;;;25.30;13.45;;;12.80;99.90;;;;;;4973178;28;20169;-71
2023/10/21 08:59:00;;;;;;;24.50;12.50;;;12.90;99.90;;;;;;4973539;28;20040;-73
2023/10/21 09:01:26;;;;;;;27.70;13.75;;;13.30;99.90;;;;;;4970858;28;20062;-76
2023/10/21 09:03:52;;;;;;;24.45;13.07;;;13.00;99.90;;;;;;4957845;28;20045;-72
2023/10/21 09:06:18;;;;;;;25.92;13.40;;;13.20;99.90;;;;;;4989496;28;20450;-78
2023/10/21 09:08:44;;;;;;;29.33;12.60;;;13.80;99.90;;;;;;4967778;28;20455;-71
2023/10/21 09:11:14;;;;;;;28.17;13.43;;;13.20;99.90;;;;;;4968420;28;20141;-74
2023/10/21 09:13:41;;;;;;;23.83;11.80;;;13.20;99.90;;;;;;4973817;28;20092;-72
2023/10/21 09:16:31;;;;;;;19.55;10.45;;;13.90;99.90;;;;;;4971477;28;20080;-72
2023/10/21 09:19:07;;;;;;;18.35;10.57;;;13.40;99.90;;;;;;4973594;28;20038;-73
2023/10/21 09:21:39;;;;;;;22.75;11.05;;;13.70;99.90;;;;;;4972630;28;20086;-70
2023/10/21 09:24:11;;;;;;;19.58;10.70;;;14.00;99.90;;;;;;4972883;28;20050;-70
2023/10/21 09:26:41;;;;;;;21.85;11.10;;;14.20;99.90;;;;;;4971137;28;20042;-71
2023/10/21 09:29:12;;;;;;;17.75;9.48;;;13.90;99.90;;;;;;4971246;28;20056;-73
2023/10/21 09:31:44;;;;;;;16.00;8.48;;;13.90;99.90;;;;;;4955917;28;20084;-70
2023/10/21 09:34:10;;;;;;;17.80;9.40;;;13.40;99.90;;;;;;4973647;28;20463;-69
2023/10/21 09:36:42;;;;;;;18.75;9.02;;;13.80;99.90;;;;;;4957175;28;20038;-70
2023/10/21 09:39:08;;;;;;;16.98;8.85;;;13.80;99.90;;;;;;4968365;28;20060;-72
2023/10/21 09:41:35;;;;;;;15.10;8.25;;;13.60;99.90;;;;;;4974743;28;20451;-73
2023/10/21 09:44:03;;;;;;;14.73;8.18;;;14.00;99.90;;;;;;4975537;28;20084;-71
2023/10/21 09:46:32;;;;;;;15.13;7.53;;;13.90;99.90;;;;;;4968387;28;20042;-71
2023/10/21 09:49:03;;;;;;;12.52;7.35;;;13.50;99.90;;;;;;4970820;28;20074;-72
2023/10/21 09:51:34;;;;;;;12.77;6.88;;;13.60;99.90;;;;;;4970597;28;20125;-71
2023/10/21 09:54:05;;;;;;;11.68;5.80;;;13.90;99.90;;;;;;4971394;28;20129;-69
2023/10/21 09:56:30;;;;;;;;;;;14.00;99.90;;;;;;4968546;28;20042;-70
2023/10/21 09:58:56;;;;;;;7.68;4.90;;;13.60;99.90;;;;;;4984100;28;19925;-72
2023/10/21 10:01:25;;;;;;;7.93;4.93;;;13.40;99.90;;;;;;4967919;28;20442;-73
2023/10/21 10:03:52;;;;;;;7.60;4.53;;;13.70;99.90;;;;;;4955557;28;20042;-72
2023/10/21 10:06:19;;;;;;;6.30;3.70;;;13.40;99.90;;;;;;4958534;28;20134;-67
2023/10/21 10:08:45;;;;;;;6.63;3.95;;;13.90;99.90;;;;;;4974279;28;20129;-69
2023/10/21 10:11:15;;;;;;;7.13;3.13;;;13.70;99.90;;;;;;4960107;28;20069;-67
2023/10/21 10:13:46;;;;;;;3.70;2.90;;;13.80;99.90;;;;;;4984094;28;20129;-67
2023/10/21 10:16:23;;;;;;;3.97;2.38;;;13.30;99.90;;;;;;4972628;28;20042;-67
2023/10/21 10:18:50;;;;;;;2.38;1.70;;;13.20;99.90;;;;;;4974362;28;20458;-69
2023/10/21 10:21:17;;;;;;;3.95;2.08;;;13.30;99.90;;;;;;4975852;28;20092;-72
2023/10/21 10:23:50;;;;;;;2.10;1.65;;;13.20;99.90;;;;;;4974520;28;20046;-69
2023/10/21 10:26:37;;;;;;;2.83;1.60;;;13.30;99.90;;;;;;4975005;28;20091;-72
2023/10/21 10:29:26;;;;;;;3.60;1.98;;;13.30;99.90;;;;;;4959697;28;20358;-68
2023/10/21 10:32:25;;;;;;;4.78;1.83;;;13.40;99.90;;;;;;4987404;28;20537;-67
2023/10/21 10:34:57;;;;;;;1.98;1.70;;;13.30;99.90;;;;;;4953533;28;20058;-71
2023/10/21 10:37:34;;;;;;;3.30;1.90;;;13.40;99.90;;;;;;4975164;28;20061;-70
2023/10/21 10:40:05;;;;;;;3.08;1.95;;;13.30;99.90;;;;;;4992827;28;20061;-67
2023/10/21 10:42:34;;;;;;;;;;;13.30;99.90;;;;;;4976029;28;20501;-70
2023/10/21 10:45:00;;;;;;;2.85;1.50;;;13.40;99.90;;;;;;4969489;28;19921;-69
2023/10/21 10:47:29;;;;;;;8.70;1.60;;;13.90;99.90;;;;;;4984110;28;20488;-68
2023/10/21 10:49:55;;;;;;;3.10;1.20;;;13.60;99.90;;;;;;4987003;28;20137;-71
2023/10/21 10:52:31;;;;;;;3.95;1.48;;;14.00;99.90;;;;;;4976147;28;20125;-73
2023/10/21 10:54:57;;;;;;;2.45;1.00;;;13.80;99.90;;;;;;4958437;28;20038;-69
2023/10/21 10:57:23;;;;;;;2.75;1.17;;;13.60;99.90;;;;;;4969022;28;20045;-70
2023/10/21 10:59:50;;;;;;;1.80;0.90;;;13.80;99.90;;;;;;4974567;28;20129;-69
2023/10/21 11:02:17;;;;;;;2.00;0.98;;;13.60;99.90;;;;;;4955540;28;20046;-70
2023/10/21 11:04:46;;;;;;;1.40;1.00;;;13.50;99.90;;;;;;4968826;28;20038;-66
2023/10/21 11:07:11;;;;;;;1.20;0.98;;;13.60;99.90;;;;;;4982929;28;20045;-70
2023/10/21 11:09:38;;;;;;;2.00;1.13;;;13.50;99.90;;;;;;4974899;28;20042;-68
2023/10/21 11:12:03;;;;;;;1.95;0.77;;;13.20;99.90;;;;;;4974885;28;20042;-67
2023/10/21 11:14:29;;;;;;;3.08;0.88;;;13.10;99.90;;;;;;4971912;28;20725;-69
2023/10/21 11:16:55;;;;;;;1.77;1.02;;;13.30;99.90;;;;;;4971600;28;20104;-70
2023/10/21 11:19:22;;;;;;;1.50;0.60;;;13.20;99.90;;;;;;4972621;28;20120;-70
2023/10/21 11:21:48;;;;;;;1.58;0.60;;;13.20;99.90;;;;;;4974123;28;20040;-69
2023/10/21 11:24:15;;;;;;;0.77;0.60;;;13.10;99.90;;;;;;4968891;28;20378;-68
2023/10/21 11:26:42;;;;;;;0.85;0.80;;;13.20;99.90;;;;;;4977320;28;20057;-69
2023/10/21 11:29:08;;;;;;;3.20;0.90;;;13.30;99.90;;;;;;4978214;28;20074;-71
2023/10/21 11:31:34;;;;;;;1.05;0.80;;;13.30;99.90;;;;;;4971525;28;20121;-68
2023/10/21 11:34:13;;;;;;;1.35;0.90;;;13.40;99.90;;;;;;4974699;28;20124;-70
2023/10/21 11:36:44;;;;;;;2.67;1.00;;;13.40;99.90;;;;;;4989887;28;20117;-70
2023/10/21 11:39:15;;;;;;;;;;;13.50;99.90;;;;;;4974834;28;20054;-68
2023/10/21 11:41:49;;;;;;;2.13;0.93;;;13.30;99.90;;;;;;4977823;28;19922;-68
2023/10/21 11:44:31;;;;;;;1.98;0.73;;;13.50;99.90;;;;;;4974122;28;20034;-70
2023/10/21 11:47:06;;;;;;;1.05;0.70;;;13.50;99.90;;;;;;4963833;28;20042;-70
2023/10/21 11:49:33;;;;;;;1.45;0.75;;;13.50;99.90;;;;;;4985703;28;20038;-70
2023/10/21 11:52:00;;;;;;;0.68;0.52;;;13.40;99.90;;;;;;4988259;28;20093;-69
2023/10/21 11:54:46;;;;;;;1.02;0.73;;;13.30;99.90;;;;;;4987868;28;20085;-71
2023/10/21 12:06:15;;;;;;;1.63;0.88;;;13.40;99.90;;;;;;4975543;28;20410;-69
2023/10/21 12:22:19;;;;;;;2.63;0.93;;;13.40;99.90;;;;;;4970166;28;20050;-70
2023/10/21 12:40:32;;;;;;;0.73;0.60;;;13.80;99.90;;;;;;4976594;28;20050;-71
2023/10/21 12:45:46;;;;;;;2.95;0.90;;;13.80;99.90;;;;;;4982036;28;20050;-73
2023/10/21 12:48:19;;;;;;;3.33;0.80;;;13.80;99.90;;;;;;4966936;28;20042;-72
2023/10/21 12:50:51;;;;;;;1.40;0.55;;;13.70;99.90;;;;;;4989162;28;20157;-71
2023/10/21 12:53:18;;;;;;;3.70;0.90;;;13.60;99.90;;;;;;4978670;28;20121;-72
2023/10/21 12:55:44;;;;;;;3.25;0.63;;;13.50;99.90;;;;;;4984262;28;20043;-73
2023/10/21 12:58:09;;;;;;;2.42;0.60;;;13.40;99.90;;;;;;4988942;28;20173;-73
2023/10/21 13:00:35;;;;;;;1.33;1.00;;;13.40;99.90;;;;;;4970424;28;20149;-73
2023/10/21 13:03:01;;;;;;;0.88;0.68;;;13.40;99.90;;;;;;4971566;28;20062;-71
2023/10/21 13:05:27;;;;;;;1.25;0.70;;;13.50;99.90;;;;;;4966029;28;20049;-73
2023/10/21 13:07:52;;;;;;;1.33;0.80;;;13.50;99.90;;;;;;4973247;28;20042;-72
2023/10/21 13:10:18;;;;;;;1.83;0.68;;;13.60;99.90;;;;;;4971170;28;20039;-72
2023/10/21 13:12:44;;;;;;;2.08;0.90;;;13.70;99.90;;;;;;4973666;28;20050;-75
2023/10/21 13:15:12;;;;;;;3.97;0.90;;;13.70;99.90;;;;;;4984340;28;20050;-72
2023/10/21 13:17:39;;;;;;;2.70;0.90;;;13.70;99.90;;;;;;4967948;28;20100;-74